sensor_id;sensor_type;location;lat;lon;timestamp;temperature;humidity
48488;DHT22;34289;48.572;13.378;2023-04-16T00:01:27;7.10;99.90
48488;DHT22;34289;48.572;13.378;2023-04-16T00:03:53;7.00;99.90
48488;DHT22;34289;48.572;13.378;2023-04-16T00:06:19;7.00;99.90
48488;DHT22;34289;48.572;13.378;2023-04-16T00:08:44;6.90;99.90
48488;DHT22;34289;48.572;13.378;2023-04-16T00:11:10;7.00;99.90
48488;DHT22;34289;48.572;13.378;2023-04-16T00:13:37;6.90;99.90
48488;DHT22;34289;48.572;13.378;2023-04-16T00:16:03;6.90;99.90
48488;DHT22;34289;48.572;13.378;2023-04-16T00:18:28;6.80;99.90
48488;DHT22;34289;48.572;13.378;2023-04-16T00:20:54;6.70;99.90
48488;DHT22;34289;48.572;13.378;2023-04-16T00:23:20;6.70;99.90
48488;DHT22;34289;48.572;13.378;2023-04-16T00:25:46;6.60;99.90
48488;DHT22;34289;48.572;13.378;2023-04-16T00:28:12;6.60;99.90
48488;DHT22;34289;48.572;13.378;2023-04-16T00:30:37;6.60;99.90
48488;DHT22;34289;48.572;13.378;2023-04-16T00:33:03;6.60;99.90
48488;DHT22;34289;48.572;13.378;2023-04-16T00:35:29;7.20;99.90
48488;DHT22;34289;48.572;13.378;2023-04-16T00:37:55;6.60;99.90
48488;DHT22;34289;48.572;13.378;2023-04-16T00:40:20;6.70;99.90
48488;DHT22;34289;48.572;13.378;2023-04-16T00:42:46;6.50;99.90
48488;DHT22;34289;48.572;13.378;2023-04-16T00:45:12;6.40;99.90
48488;DHT22;34289;48.572;13.378;2023-04-16T00:47:37;6.40;99.90
48488;DHT22;34289;48.572;13.378;2023-04-16T00:50:04;6.40;99.90
48488;DHT22;34289;48.572;13.378;2023-04-16T00:52:33;6.40;99.90
48488;DHT22;34289;48.572;13.378;2023-04-16T00:55:00;6.40;99.90
48488;DHT22;34289;48.572;13.378;2023-04-16T00:57:25;6.30;99.90
48488;DHT22;34289;48.572;13.378;2023-04-16T00:59:53;6.80;99.90
48488;DHT22;34289;48.572;13.378;2023-04-16T01:02:18;6.20;99.90
48488;DHT22;34289;48.572;13.378;2023-04-16T01:04:44;6.10;99.90
48488;DHT22;34289;48.572;13.378;2023-04-16T01:07:10;6.20;99.90
48488;DHT22;34289;48.572;13.378;2023-04-16T01:09:35;6.10;99.90
48488;DHT22;34289;48.572;13.378;2023-04-16T01:12:01;6.50;99.90
48488;DHT22;34289;48.572;13.378;2023-04-16T01:14:26;6.10;99.90
48488;DHT22;34289;48.572;13.378;2023-04-16T01:16:52;6.30;99.90
48488;DHT22;34289;48.572;13.378;2023-04-16T01:19:18;6.30;99.90
48488;DHT22;34289;48.572;13.378;2023-04-16T01:21:43;6.20;99.90
48488;DHT22;34289;48.572;13.378;2023-04-16T01:24:09;6.10;99.90
48488;DHT22;34289;48.572;13.378;2023-04-16T01:26:35;6.00;99.90
48488;DHT22;34289;48.572;13.378;2023-04-16T01:29:01;5.90;99.90
48488;DHT22;34289;48.572;13.378;2023-04-16T01:31:27;5.90;99.90
48488;DHT22;34289;48.572;13.378;2023-04-16T01:33:53;5.90;99.90
48488;DHT22;34289;48.572;13.378;2023-04-16T01:36:18;5.90;99.90
48488;DHT22;34289;48.572;13.378;2023-04-16T01:38:44;5.80;99.90
48488;DHT22;34289;48.572;13.378;2023-04-16T01:41:09;5.90;99.90
48488;DHT22;34289;48.572;13.378;2023-04-16T01:43:35;5.90;99.90
48488;DHT22;34289;48.572;13.378;2023-04-16T01:46:26;6.00;99.90
48488;DHT22;34289;48.572;13.378;2023-04-16T01:48:52;6.00;99.90
48488;DHT22;34289;48.572;13.378;2023-04-16T01:51:19;6.10;99.90
48488;DHT22;34289;48.572;13.378;2023-04-16T01:53:45;6.20;99.90
48488;DHT22;34289;48.572;13.378;2023-04-16T01:56:10;6.20;99.90
48488;DHT22;34289;48.572;13.378;2023-04-16T01:58:36;6.00;99.90
48488;DHT22;34289;48.572;13.378;2023-04-16T02:01:02;5.90;99.90
48488;DHT22;34289;48.572;13.378;2023-04-16T02:03:29;5.90;99.90
48488;DHT22;34289;48.572;13.378;2023-04-16T02:05:55;6.50;99.90
48488;DHT22;34289;48.572;13.378;2023-04-16T02:08:21;6.10;99.90
48488;DHT22;34289;48.572;13.378;2023-04-16T02:10:48;6.10;99.90
48488;DHT22;34289;48.572;13.378;2023-04-16T02:13:15;6.20;99.90
48488;DHT22;34289;48.572;13.378;2023-04-16T02:15:48;6.30;99.90
48488;DHT22;34289;48.572;13.378;2023-04-16T02:18:14;6.20;99.90
48488;DHT22;34289;48.572;13.378;2023-04-16T02:20:44;6.20;99.90
48488;DHT22;34289;48.572;13.378;2023-04-16T02:23:10;6.20;99.90
48488;DHT22;34289;48.572;13.378;2023-04-16T02:25:46;6.10;99.90
48488;DHT22;34289;48.572;13.378;2023-04-16T02:28:13;6.20;99.90
48488;DHT22;34289;48.572;13.378;2023-04-16T02:30:40;6.30;99.90
48488;DHT22;34289;48.572;13.378;2023-04-16T02:33:07;7.10;99.90
48488;DHT22;34289;48.572;13.378;2023-04-16T02:35:34;6.90;99.90
48488;DHT22;34289;48.572;13.378;2023-04-16T02:38:00;6.40;99.90
48488;DHT22;34289;48.572;13.378;2023-04-16T02:40:26;6.90;99.90
48488;DHT22;34289;48.572;13.378;2023-04-16T02:42:53;6.80;99.90
48488;DHT22;34289;48.572;13.378;2023-04-16T02:45:20;6.60;99.90
48488;DHT22;34289;48.572;13.378;2023-04-16T02:47:46;6.50;99.90
48488;DHT22;34289;48.572;13.378;2023-04-16T02:50:12;6.60;99.90
48488;DHT22;34289;48.572;13.378;2023-04-16T02:52:38;6.60;99.90
48488;DHT22;34289;48.572;13.378;2023-04-16T02:55:04;6.60;99.90
48488;DHT22;34289;48.572;13.378;2023-04-16T02:57:30;6.50;99.90
48488;DHT22;34289;48.572;13.378;2023-04-16T02:59:55;6.30;99.90
48488;DHT22;34289;48.572;13.378;2023-04-16T03:02:21;6.40;99.90
48488;DHT22;34289;48.572;13.378;2023-04-16T03:04:46;7.00;99.90
48488;DHT22;34289;48.572;13.378;2023-04-16T03:07:12;6.50;99.90
48488;DHT22;34289;48.572;13.378;2023-04-16T03:09:39;6.50;99.90
48488;DHT22;34289;48.572;13.378;2023-04-16T03:12:05;6.50;99.90
48488;DHT22;34289;48.572;13.378;2023-04-16T03:14:30;6.60;99.90
48488;DHT22;34289;48.572;13.378;2023-04-16T03:16:57;6.60;99.90
48488;DHT22;34289;48.572;13.378;2023-04-16T03:19:22;6.50;99.90
48488;DHT22;34289;48.572;13.378;2023-04-16T03:21:48;6.50;99.90
48488;DHT22;34289;48.572;13.378;2023-04-16T03:24:13;6.70;99.90
48488;DHT22;34289;48.572;13.378;2023-04-16T03:26:39;6.60;99.90
48488;DHT22;34289;48.572;13.378;2023-04-16T03:29:05;6.70;99.90
48488;DHT22;34289;48.572;13.378;2023-04-16T03:31:30;6.60;99.90
48488;DHT22;34289;48.572;13.378;2023-04-16T03:33:56;6.60;99.90
48488;DHT22;34289;48.572;13.378;2023-04-16T03:36:22;6.50;99.90
48488;DHT22;34289;48.572;13.378;2023-04-16T03:38:48;6.90;99.90
48488;DHT22;34289;48.572;13.378;2023-04-16T03:41:13;6.60;99.90
48488;DHT22;34289;48.572;13.378;2023-04-16T03:43:39;6.70;99.90
48488;DHT22;34289;48.572;13.378;2023-04-16T03:46:05;6.40;99.90
48488;DHT22;34289;48.572;13.378;2023-04-16T03:48:30;7.00;99.90
48488;DHT22;34289;48.572;13.378;2023-04-16T03:50:56;6.20;99.90
48488;DHT22;34289;48.572;13.378;2023-04-16T03:53:21;6.10;99.90
48488;DHT22;34289;48.572;13.378;2023-04-16T03:55:50;6.80;99.90
48488;DHT22;34289;48.572;13.378;2023-04-16T03:58:16;6.00;99.90
48488;DHT22;34289;48.572;13.378;2023-04-16T04:00:42;6.90;99.90
48488;DHT22;34289;48.572;13.378;2023-04-16T04:03:08;6.10;99.90
48488;DHT22;34289;48.572;13.378;2023-04-16T04:05:41;6.20;99.90
48488;DHT22;34289;48.572;13.378;2023-04-16T04:08:07;6.10;99.90
48488;DHT22;34289;48.572;13.378;2023-04-16T04:10:36;6.30;99.90
48488;DHT22;34289;48.572;13.378;2023-04-16T04:13:03;6.20;99.90
48488;DHT22;34289;48.572;13.378;2023-04-16T04:15:30;6.30;99.90
48488;DHT22;34289;48.572;13.378;2023-04-16T04:17:56;6.30;99.90
48488;DHT22;34289;48.572;13.378;2023-04-16T04:20:21;6.20;99.90
48488;DHT22;34289;48.572;13.378;2023-04-16T04:22:47;6.10;99.90
48488;DHT22;34289;48.572;13.378;2023-04-16T04:25:13;6.10;99.90
48488;DHT22;34289;48.572;13.378;2023-04-16T04:27:38;6.20;99.90
48488;DHT22;34289;48.572;13.378;2023-04-16T04:30:04;6.20;99.90
48488;DHT22;34289;48.572;13.378;2023-04-16T04:32:30;6.10;99.90
48488;DHT22;34289;48.572;13.378;2023-04-16T04:34:57;6.20;99.90
48488;DHT22;34289;48.572;13.378;2023-04-16T04:37:23;6.20;99.90
48488;DHT22;34289;48.572;13.378;2023-04-16T04:39:48;6.20;99.90
48488;DHT22;34289;48.572;13.378;2023-04-16T04:42:16;6.40;99.90
48488;DHT22;34289;48.572;13.378;2023-04-16T04:44:43;6.60;99.90
48488;DHT22;34289;48.572;13.378;2023-04-16T04:47:08;6.50;99.90
48488;DHT22;34289;48.572;13.378;2023-04-16T04:49:35;6.50;99.90
48488;DHT22;34289;48.572;13.378;2023-04-16T04:52:00;6.40;99.90
48488;DHT22;34289;48.572;13.378;2023-04-16T04:54:27;6.50;99.90
48488;DHT22;34289;48.572;13.378;2023-04-16T04:56:53;6.50;99.90
48488;DHT22;34289;48.572;13.378;2023-04-16T04:59:19;6.50;99.90
48488;DHT22;34289;48.572;13.378;2023-04-16T05:01:45;6.50;99.90
48488;DHT22;34289;48.572;13.378;2023-04-16T05:04:11;6.50;99.90
48488;DHT22;34289;48.572;13.378;2023-04-16T05:06:36;6.50;99.90
48488;DHT22;34289;48.572;13.378;2023-04-16T05:09:02;7.00;99.90
48488;DHT22;34289;48.572;13.378;2023-04-16T05:11:28;6.40;99.90
48488;DHT22;34289;48.572;13.378;2023-04-16T05:13:54;6.40;99.90
48488;DHT22;34289;48.572;13.378;2023-04-16T05:16:20;6.40;99.90
48488;DHT22;34289;48.572;13.378;2023-04-16T05:18:45;6.50;99.90
48488;DHT22;34289;48.572;13.378;2023-04-16T05:21:11;7.00;99.90
48488;DHT22;34289;48.572;13.378;2023-04-16T05:23:36;6.50;99.90
48488;DHT22;34289;48.572;13.378;2023-04-16T05:26:02;6.50;99.90
48488;DHT22;34289;48.572;13.378;2023-04-16T05:28:30;6.90;99.90
48488;DHT22;34289;48.572;13.378;2023-04-16T05:30:55;6.60;99.90
48488;DHT22;34289;48.572;13.378;2023-04-16T05:33:21;8.80;99.90
48488;DHT22;34289;48.572;13.378;2023-04-16T05:35:46;6.70;99.90
48488;DHT22;34289;48.572;13.378;2023-04-16T05:38:12;6.60;99.90
48488;DHT22;34289;48.572;13.378;2023-04-16T05:40:38;6.60;99.90
48488;DHT22;34289;48.572;13.378;2023-04-16T05:43:03;7.20;99.90
48488;DHT22;34289;48.572;13.378;2023-04-16T05:45:29;6.70;99.90
48488;DHT22;34289;48.572;13.378;2023-04-16T05:47:57;6.90;99.90
48488;DHT22;34289;48.572;13.378;2023-04-16T05:50:23;7.00;99.90
48488;DHT22;34289;48.572;13.378;2023-04-16T05:52:48;7.00;99.90
48488;DHT22;34289;48.572;13.378;2023-04-16T05:55:14;7.30;99.90
48488;DHT22;34289;48.572;13.378;2023-04-16T05:57:40;7.60;99.90
48488;DHT22;34289;48.572;13.378;2023-04-16T06:00:06;7.70;99.90
48488;DHT22;34289;48.572;13.378;2023-04-16T06:02:32;7.90;99.90
48488;DHT22;34289;48.572;13.378;2023-04-16T06:04:58;7.90;99.90
48488;DHT22;34289;48.572;13.378;2023-04-16T06:07:23;7.90;99.90
48488;DHT22;34289;48.572;13.378;2023-04-16T06:09:49;7.80;99.90
48488;DHT22;34289;48.572;13.378;2023-04-16T06:12:14;7.70;99.90
48488;DHT22;34289;48.572;13.378;2023-04-16T06:14:40;7.70;99.90
48488;DHT22;34289;48.572;13.378;2023-04-16T06:17:06;7.80;99.90
48488;DHT22;34289;48.572;13.378;2023-04-16T06:19:31;7.80;99.90
48488;DHT22;34289;48.572;13.378;2023-04-16T06:21:57;7.80;99.90
48488;DHT22;34289;48.572;13.378;2023-04-16T06:24:23;7.90;99.90
48488;DHT22;34289;48.572;13.378;2023-04-16T06:26:48;7.90;99.90
48488;DHT22;34289;48.572;13.378;2023-04-16T06:29:14;7.90;99.90
48488;DHT22;34289;48.572;13.378;2023-04-16T06:31:39;7.90;99.90
48488;DHT22;34289;48.572;13.378;2023-04-16T06:34:05;7.90;99.90
48488;DHT22;34289;48.572;13.378;2023-04-16T06:36:31;8.10;99.90
48488;DHT22;34289;48.572;13.378;2023-04-16T06:38:56;8.20;99.90
48488;DHT22;34289;48.572;13.378;2023-04-16T06:41:22;8.40;99.90
48488;DHT22;34289;48.572;13.378;2023-04-16T06:43:50;8.90;99.90
48488;DHT22;34289;48.572;13.378;2023-04-16T06:46:15;9.10;99.90
48488;DHT22;34289;48.572;13.378;2023-04-16T06:48:41;9.80;99.90
48488;DHT22;34289;48.572;13.378;2023-04-16T06:51:07;10.50;99.90
48488;DHT22;34289;48.572;13.378;2023-04-16T06:53:32;10.90;99.90
48488;DHT22;34289;48.572;13.378;2023-04-16T06:55:58;10.90;99.90
48488;DHT22;34289;48.572;13.378;2023-04-16T06:58:24;10.80;99.90
48488;DHT22;34289;48.572;13.378;2023-04-16T07:00:50;11.00;99.90
48488;DHT22;34289;48.572;13.378;2023-04-16T07:03:15;11.20;99.90
48488;DHT22;34289;48.572;13.378;2023-04-16T07:05:41;11.00;99.90
48488;DHT22;34289;48.572;13.378;2023-04-16T07:08:06;11.00;99.90
48488;DHT22;34289;48.572;13.378;2023-04-16T07:10:32;10.60;99.90
48488;DHT22;34289;48.572;13.378;2023-04-16T07:12:57;10.30;99.90
48488;DHT22;34289;48.572;13.378;2023-04-16T07:15:26;10.20;99.90
48488;DHT22;34289;48.572;13.378;2023-04-16T07:17:51;10.20;99.90
48488;DHT22;34289;48.572;13.378;2023-04-16T07:20:17;10.30;99.90
48488;DHT22;34289;48.572;13.378;2023-04-16T07:22:43;10.80;99.90
48488;DHT22;34289;48.572;13.378;2023-04-16T07:25:08;11.00;99.90
48488;DHT22;34289;48.572;13.378;2023-04-16T07:27:34;11.10;99.90
48488;DHT22;34289;48.572;13.378;2023-04-16T07:29:59;11.00;99.90
48488;DHT22;34289;48.572;13.378;2023-04-16T07:32:25;11.10;99.90
48488;DHT22;34289;48.572;13.378;2023-04-16T07:34:51;11.30;99.90
48488;DHT22;34289;48.572;13.378;2023-04-16T07:37:16;11.70;99.90
48488;DHT22;34289;48.572;13.378;2023-04-16T07:39:42;12.00;99.90
48488;DHT22;34289;48.572;13.378;2023-04-16T07:42:08;11.80;99.90
48488;DHT22;34289;48.572;13.378;2023-04-16T07:44:33;11.90;99.90
48488;DHT22;34289;48.572;13.378;2023-04-16T07:46:59;11.40;99.90
48488;DHT22;34289;48.572;13.378;2023-04-16T07:49:24;11.40;99.90
48488;DHT22;34289;48.572;13.378;2023-04-16T07:51:50;11.40;99.90
48488;DHT22;34289;48.572;13.378;2023-04-16T07:54:16;11.30;99.90
48488;DHT22;34289;48.572;13.378;2023-04-16T07:56:41;11.40;99.90
48488;DHT22;34289;48.572;13.378;2023-04-16T07:59:07;11.20;99.90
48488;DHT22;34289;48.572;13.378;2023-04-16T08:01:32;10.90;99.90
48488;DHT22;34289;48.572;13.378;2023-04-16T08:03:58;10.70;99.90
48488;DHT22;34289;48.572;13.378;2023-04-16T08:06:24;11.00;99.90
48488;DHT22;34289;48.572;13.378;2023-04-16T08:08:51;10.90;99.90
48488;DHT22;34289;48.572;13.378;2023-04-16T08:11:16;11.00;99.90
48488;DHT22;34289;48.572;13.378;2023-04-16T08:13:42;11.50;99.90
48488;DHT22;34289;48.572;13.378;2023-04-16T08:16:07;11.50;99.90
48488;DHT22;34289;48.572;13.378;2023-04-16T08:18:33;11.70;99.90
48488;DHT22;34289;48.572;13.378;2023-04-16T08:20:59;12.00;99.90
48488;DHT22;34289;48.572;13.378;2023-04-16T08:23:24;12.30;99.90
48488;DHT22;34289;48.572;13.378;2023-04-16T08:25:50;12.50;99.90
48488;DHT22;34289;48.572;13.378;2023-04-16T08:28:16;14.80;99.90
48488;DHT22;34289;48.572;13.378;2023-04-16T08:30:41;12.60;99.90
48488;DHT22;34289;48.572;13.378;2023-04-16T08:33:07;11.40;99.90
48488;DHT22;34289;48.572;13.378;2023-04-16T08:35:33;10.70;99.90
48488;DHT22;34289;48.572;13.378;2023-04-16T08:37:58;10.40;99.90
48488;DHT22;34289;48.572;13.378;2023-04-16T08:40:25;10.60;99.90
48488;DHT22;34289;48.572;13.378;2023-04-16T08:42:54;10.60;99.90
48488;DHT22;34289;48.572;13.378;2023-04-16T08:45:20;10.80;99.90
48488;DHT22;34289;48.572;13.378;2023-04-16T08:47:48;10.90;99.90
48488;DHT22;34289;48.572;13.378;2023-04-16T08:50:15;11.00;99.90
48488;DHT22;34289;48.572;13.378;2023-04-16T08:52:48;10.90;99.90
48488;DHT22;34289;48.572;13.378;2023-04-16T08:55:15;10.70;99.90
48488;DHT22;34289;48.572;13.378;2023-04-16T08:57:57;10.80;99.90
48488;DHT22;34289;48.572;13.378;2023-04-16T09:00:23;11.50;99.90
48488;DHT22;34289;48.572;13.378;2023-04-16T09:02:49;11.90;99.90
48488;DHT22;34289;48.572;13.378;2023-04-16T09:05:16;12.10;99.90
48488;DHT22;34289;48.572;13.378;2023-04-16T09:07:46;12.30;99.90
48488;DHT22;34289;48.572;13.378;2023-04-16T09:10:13;12.40;99.90
48488;DHT22;34289;48.572;13.378;2023-04-16T09:12:40;12.20;99.90
48488;DHT22;34289;48.572;13.378;2023-04-16T09:15:11;12.30;99.90
48488;DHT22;34289;48.572;13.378;2023-04-16T09:17:38;12.50;99.90
48488;DHT22;34289;48.572;13.378;2023-04-16T09:20:08;12.60;99.90
48488;DHT22;34289;48.572;13.378;2023-04-16T09:22:35;12.80;99.90
48488;DHT22;34289;48.572;13.378;2023-04-16T09:25:01;12.50;99.90
48488;DHT22;34289;48.572;13.378;2023-04-16T09:27:27;12.40;99.90
48488;DHT22;34289;48.572;13.378;2023-04-16T09:29:54;12.40;99.90
48488;DHT22;34289;48.572;13.378;2023-04-16T09:32:24;12.30;99.90
48488;DHT22;34289;48.572;13.378;2023-04-16T09:35:00;12.40;99.90
48488;DHT22;34289;48.572;13.378;2023-04-16T09:37:30;12.40;99.90
48488;DHT22;34289;48.572;13.378;2023-04-16T09:40:03;12.50;99.90
48488;DHT22;34289;48.572;13.378;2023-04-16T09:42:31;12.50;99.90
48488;DHT22;34289;48.572;13.378;2023-04-16T09:44:57;12.20;99.90
48488;DHT22;34289;48.572;13.378;2023-04-16T09:47:25;11.80;99.90
48488;DHT22;34289;48.572;13.378;2023-04-16T09:49:51;11.80;99.90
48488;DHT22;34289;48.572;13.378;2023-04-16T09:52:19;11.70;99.90
48488;DHT22;34289;48.572;13.378;2023-04-16T09:54:52;11.50;99.90
48488;DHT22;34289;48.572;13.378;2023-04-16T09:57:22;11.50;99.90
48488;DHT22;34289;48.572;13.378;2023-04-16T09:59:52;11.60;99.90
48488;DHT22;34289;48.572;13.378;2023-04-16T10:02:18;11.80;99.90
48488;DHT22;34289;48.572;13.378;2023-04-16T10:04:48;11.90;99.90
48488;DHT22;34289;48.572;13.378;2023-04-16T10:07:14;11.90;99.90
48488;DHT22;34289;48.572;13.378;2023-04-16T10:09:40;11.70;99.90
48488;DHT22;34289;48.572;13.378;2023-04-16T10:12:06;12.20;99.90
48488;DHT22;34289;48.572;13.378;2023-04-16T10:14:33;11.90;99.90
48488;DHT22;34289;48.572;13.378;2023-04-16T10:16:59;11.70;99.90
48488;DHT22;34289;48.572;13.378;2023-04-16T10:19:26;12.10;99.90
48488;DHT22;34289;48.572;13.378;2023-04-16T10:21:52;12.20;99.90
48488;DHT22;34289;48.572;13.378;2023-04-16T10:24:19;12.30;99.90
48488;DHT22;34289;48.572;13.378;2023-04-16T10:26:46;12.10;99.90
48488;DHT22;34289;48.572;13.378;2023-04-16T10:29:13;12.00;99.90
48488;DHT22;34289;48.572;13.378;2023-04-16T10:31:39;11.80;99.90
48488;DHT22;34289;48.572;13.378;2023-04-16T10:34:08;11.80;99.90
48488;DHT22;34289;48.572;13.378;2023-04-16T10:36:37;12.00;99.90
48488;DHT22;34289;48.572;13.378;2023-04-16T10:39:11;12.20;99.90
48488;DHT22;34289;48.572;13.378;2023-04-16T10:41:37;12.40;99.90
48488;DHT22;34289;48.572;13.378;2023-04-16T10:44:08;12.60;99.90
48488;DHT22;34289;48.572;13.378;2023-04-16T10:46:41;12.70;99.90
48488;DHT22;34289;48.572;13.378;2023-04-16T10:49:23;12.70;99.90
48488;DHT22;34289;48.572;13.378;2023-04-16T10:51:59;12.50;99.90
48488;DHT22;34289;48.572;13.378;2023-04-16T10:54:30;12.50;99.90
48488;DHT22;34289;48.572;13.378;2023-04-16T10:56:57;12.50;99.90
48488;DHT22;34289;48.572;13.378;2023-04-16T10:59:24;12.70;99.90
48488;DHT22;34289;48.572;13.378;2023-04-16T11:01:58;12.90;99.90
48488;DHT22;34289;48.572;13.378;2023-04-16T11:04:27;12.90;99.90
48488;DHT22;34289;48.572;13.378;2023-04-16T11:09:44;13.00;99.90
48488;DHT22;34289;48.572;13.378;2023-04-16T11:12:25;13.00;99.90
48488;DHT22;34289;48.572;13.378;2023-04-16T11:15:00;13.10;99.90
48488;DHT22;34289;48.572;13.378;2023-04-16T11:17:36;12.70;99.90
48488;DHT22;34289;48.572;13.378;2023-04-16T11:20:02;12.70;99.90
48488;DHT22;34289;48.572;13.378;2023-04-16T11:22:29;12.50;99.90
48488;DHT22;34289;48.572;13.378;2023-04-16T11:24:55;12.30;99.90
48488;DHT22;34289;48.572;13.378;2023-04-16T11:27:24;12.20;99.90
48488;DHT22;34289;48.572;13.378;2023-04-16T11:30:09;12.10;99.90
48488;DHT22;34289;48.572;13.378;2023-04-16T11:32:36;12.30;99.90
48488;DHT22;34289;48.572;13.378;2023-04-16T11:35:06;12.50;99.90
48488;DHT22;34289;48.572;13.378;2023-04-16T11:37:37;12.50;99.90
48488;DHT22;34289;48.572;13.378;2023-04-16T11:40:04;12.60;99.90
48488;DHT22;34289;48.572;13.378;2023-04-16T11:42:34;12.50;99.90
48488;DHT22;34289;48.572;13.378;2023-04-16T11:45:06;12.40;99.90
48488;DHT22;34289;48.572;13.378;2023-04-16T11:47:42;12.30;99.90
48488;DHT22;34289;48.572;13.378;2023-04-16T11:50:25;12.30;99.90
48488;DHT22;34289;48.572;13.378;2023-04-16T11:52:56;12.30;99.90
48488;DHT22;34289;48.572;13.378;2023-04-16T11:55:22;12.30;99.90
48488;DHT22;34289;48.572;13.378;2023-04-16T11:57:49;12.30;99.90
48488;DHT22;34289;48.572;13.378;2023-04-16T12:00:15;12.40;99.90
48488;DHT22;34289;48.572;13.378;2023-04-16T12:02:42;12.10;99.90
48488;DHT22;34289;48.572;13.378;2023-04-16T12:05:31;12.00;99.90
48488;DHT22;34289;48.572;13.378;2023-04-16T12:08:03;12.00;99.90
48488;DHT22;34289;48.572;13.378;2023-04-16T12:10:30;12.10;99.90
48488;DHT22;34289;48.572;13.378;2023-04-16T12:13:13;12.30;99.90
48488;DHT22;34289;48.572;13.378;2023-04-16T12:15:50;12.10;99.90
48488;DHT22;34289;48.572;13.378;2023-04-16T12:18:17;12.10;99.90
48488;DHT22;34289;48.572;13.378;2023-04-16T12:20:45;12.20;99.90
48488;DHT22;34289;48.572;13.378;2023-04-16T12:23:32;12.10;99.90
48488;DHT22;34289;48.572;13.378;2023-04-16T12:26:06;12.10;99.90
48488;DHT22;34289;48.572;13.378;2023-04-16T12:28:35;12.10;99.90
48488;DHT22;34289;48.572;13.378;2023-04-16T12:31:03;11.90;99.90
48488;DHT22;34289;48.572;13.378;2023-04-16T12:33:29;11.90;99.90
48488;DHT22;34289;48.572;13.378;2023-04-16T12:35:55;11.90;99.90
48488;DHT22;34289;48.572;13.378;2023-04-16T12:38:21;12.00;99.90
48488;DHT22;34289;48.572;13.378;2023-04-16T12:40:46;11.90;99.90
48488;DHT22;34289;48.572;13.378;2023-04-16T12:43:12;11.80;99.90
48488;DHT22;34289;48.572;13.378;2023-04-16T12:45:38;11.90;99.90
48488;DHT22;34289;48.572;13.378;2023-04-16T12:48:05;11.80;99.90
48488;DHT22;34289;48.572;13.378;2023-04-16T12:50:31;11.80;99.90
48488;DHT22;34289;48.572;13.378;2023-04-16T12:52:57;12.00;99.90
48488;DHT22;34289;48.572;13.378;2023-04-16T12:55:23;12.00;99.90
48488;DHT22;34289;48.572;13.378;2023-04-16T12:57:49;12.00;99.90
48488;DHT22;34289;48.572;13.378;2023-04-16T13:00:17;12.00;99.90
48488;DHT22;34289;48.572;13.378;2023-04-16T13:02:43;11.90;99.90
48488;DHT22;34289;48.572;13.378;2023-04-16T13:05:09;11.90;99.90
48488;DHT22;34289;48.572;13.378;2023-04-16T13:07:34;12.00;99.90
48488;DHT22;34289;48.572;13.378;2023-04-16T13:10:00;12.00;99.90
48488;DHT22;34289;48.572;13.378;2023-04-16T13:12:26;12.00;99.90
48488;DHT22;34289;48.572;13.378;2023-04-16T13:14:53;11.80;99.90
48488;DHT22;34289;48.572;13.378;2023-04-16T13:17:19;12.00;99.90
48488;DHT22;34289;48.572;13.378;2023-04-16T13:19:45;11.90;99.90
48488;DHT22;34289;48.572;13.378;2023-04-16T13:22:10;11.90;99.90
48488;DHT22;34289;48.572;13.378;2023-04-16T13:24:36;12.30;99.90
48488;DHT22;34289;48.572;13.378;2023-04-16T13:27:02;12.60;99.90
48488;DHT22;34289;48.572;13.378;2023-04-16T13:29:28;12.80;99.90
48488;DHT22;34289;48.572;13.378;2023-04-16T13:31:54;13.10;99.90
48488;DHT22;34289;48.572;13.378;2023-04-16T13:34:20;13.30;99.90
48488;DHT22;34289;48.572;13.378;2023-04-16T13:36:46;13.20;99.90
48488;DHT22;34289;48.572;13.378;2023-04-16T13:39:13;13.00;99.90
48488;DHT22;34289;48.572;13.378;2023-04-16T13:41:39;13.00;99.90
48488;DHT22;34289;48.572;13.378;2023-04-16T13:44:05;13.30;99.90
48488;DHT22;34289;48.572;13.378;2023-04-16T13:46:31;13.40;99.90
48488;DHT22;34289;48.572;13.378;2023-04-16T13:48:57;13.30;99.90
48488;DHT22;34289;48.572;13.378;2023-04-16T13:51:23;13.00;99.90
48488;DHT22;34289;48.572;13.378;2023-04-16T13:53:48;12.90;99.90
48488;DHT22;34289;48.572;13.378;2023-04-16T13:56:14;13.00;99.90
48488;DHT22;34289;48.572;13.378;2023-04-16T13:58:40;13.20;99.90
48488;DHT22;34289;48.572;13.378;2023-04-16T14:01:06;13.30;99.90
48488;DHT22;34289;48.572;13.378;2023-04-16T14:03:32;13.20;99.90
48488;DHT22;34289;48.572;13.378;2023-04-16T14:06:03;13.00;99.90
48488;DHT22;34289;48.572;13.378;2023-04-16T14:08:29;13.00;99.90
48488;DHT22;34289;48.572;13.378;2023-04-16T14:10:56;12.90;99.90
48488;DHT22;34289;48.572;13.378;2023-04-16T14:13:21;12.80;99.90
48488;DHT22;34289;48.572;13.378;2023-04-16T14:15:47;12.70;99.90
48488;DHT22;34289;48.572;13.378;2023-04-16T14:18:13;12.60;99.90
48488;DHT22;34289;48.572;13.378;2023-04-16T14:20:39;12.60;99.90
48488;DHT22;34289;48.572;13.378;2023-04-16T14:23:05;12.50;99.90
48488;DHT22;34289;48.572;13.378;2023-04-16T14:25:31;12.40;99.90
48488;DHT22;34289;48.572;13.378;2023-04-16T14:27:58;12.40;99.90
48488;DHT22;34289;48.572;13.378;2023-04-16T14:30:24;12.10;99.90
48488;DHT22;34289;48.572;13.378;2023-04-16T14:32:49;11.70;99.90
48488;DHT22;34289;48.572;13.378;2023-04-16T14:35:15;11.20;99.90
48488;DHT22;34289;48.572;13.378;2023-04-16T14:37:41;11.00;99.90
48488;DHT22;34289;48.572;13.378;2023-04-16T14:40:07;10.70;99.90
48488;DHT22;34289;48.572;13.378;2023-04-16T14:42:34;10.50;99.90
48488;DHT22;34289;48.572;13.378;2023-04-16T14:45:01;10.30;99.90
48488;DHT22;34289;48.572;13.378;2023-04-16T14:47:27;9.80;99.90
48488;DHT22;34289;48.572;13.378;2023-04-16T14:49:53;9.50;99.90
48488;DHT22;34289;48.572;13.378;2023-04-16T14:52:18;9.50;99.90
48488;DHT22;34289;48.572;13.378;2023-04-16T14:54:44;9.80;99.90
48488;DHT22;34289;48.572;13.378;2023-04-16T14:57:09;9.40;99.90
48488;DHT22;34289;48.572;13.378;2023-04-16T14:59:35;9.20;99.90
48488;DHT22;34289;48.572;13.378;2023-04-16T15:02:01;9.10;99.90
48488;DHT22;34289;48.572;13.378;2023-04-16T15:04:27;9.20;99.90
48488;DHT22;34289;48.572;13.378;2023-04-16T15:06:53;9.00;99.90
48488;DHT22;34289;48.572;13.378;2023-04-16T15:09:24;9.10;99.90
48488;DHT22;34289;48.572;13.378;2023-04-16T15:11:50;9.00;99.90
48488;DHT22;34289;48.572;13.378;2023-04-16T15:14:16;9.20;99.90
48488;DHT22;34289;48.572;13.378;2023-04-16T15:16:41;9.30;99.90
48488;DHT22;34289;48.572;13.378;2023-04-16T15:19:07;9.30;99.90
48488;DHT22;34289;48.572;13.378;2023-04-16T15:21:33;10.40;99.90
48488;DHT22;34289;48.572;13.378;2023-04-16T15:23:58;9.90;99.90